createdAt,value
2023-04-18T00:02:44.252Z,12.95
2023-04-18T00:05:50.051Z,14.98
2023-04-18T00:08:56.522Z,13.48
2023-04-18T00:12:02.689Z,28.05
2023-04-18T00:15:12.154Z,17.48
2023-04-18T00:18:17.617Z,11.25
2023-04-18T00:21:23.086Z,13.70
2023-04-18T00:24:28.742Z,13.23
2023-04-18T00:27:34.618Z,17.55
2023-04-18T00:30:40.978Z,12.60
2023-04-18T00:33:46.710Z,18.02
2023-04-18T00:36:54.720Z,12.20
2023-04-18T00:40:00.580Z,12.23
2023-04-18T00:43:08.629Z,12.43
2023-04-18T00:46:14.291Z,16.35
2023-04-18T00:49:21.475Z,16.45
2023-04-18T00:52:28.253Z,11.55
2023-04-18T00:55:35.818Z,16.42
2023-04-18T00:58:43.097Z,14.55
2023-04-18T01:01:48.860Z,21.35
2023-04-18T01:04:54.422Z,15.88
2023-04-18T01:08:01.505Z,13.25
2023-04-18T01:11:07.052Z,16.33
2023-04-18T01:14:12.937Z,15.23
2023-04-18T01:17:19.557Z,13.95
2023-04-18T01:20:26.832Z,13.93
2023-04-18T01:23:33.067Z,12.88
2023-04-18T01:26:39.265Z,19.83
2023-04-18T01:29:45.152Z,13.88
2023-04-18T01:32:50.888Z,13.63
2023-04-18T01:35:56.510Z,17.05
2023-04-18T01:39:02.225Z,14.20
2023-04-18T01:42:07.812Z,18.15
2023-04-18T01:45:13.629Z,13.60
2023-04-18T01:48:19.519Z,16.10
2023-04-18T01:51:26.763Z,16.67
2023-04-18T01:54:32.482Z,15.05
2023-04-18T01:57:38.615Z,14.07
2023-04-18T02:00:44.602Z,15.43
2023-04-18T02:03:50.295Z,16.42
2023-04-18T02:06:58.608Z,16.60
2023-04-18T02:10:04.416Z,16.00
2023-04-18T02:13:10.634Z,13.10
2023-04-18T02:16:16.654Z,13.25
2023-04-18T02:19:22.944Z,14.60
2023-04-18T02:22:28.288Z,19.50
2023-04-18T02:25:34.318Z,15.43
2023-04-18T02:28:39.971Z,13.25
2023-04-18T02:31:45.645Z,18.40
2023-04-18T02:34:53.797Z,19.67
2023-04-18T02:37:59.415Z,12.65
2023-04-18T02:41:05.225Z,19.02
2023-04-18T02:44:11.119Z,14.40
2023-04-18T02:47:18.385Z,23.23
2023-04-18T02:50:25.862Z,12.90
2023-04-18T02:53:35.525Z,17.70
2023-04-18T02:56:43.026Z,16.17
2023-04-18T03:00:09.701Z,16.17
2023-04-18T03:03:45.204Z,13.23
2023-04-18T03:07:11.372Z,17.48
2023-04-18T03:10:18.823Z,13.50
2023-04-18T03:13:25.761Z,11.38
2023-04-18T03:16:32.491Z,12.82
2023-04-18T03:19:39.151Z,13.00
2023-04-18T03:22:48.160Z,17.00
2023-04-18T03:25:58.463Z,12.82
2023-04-18T03:29:07.324Z,10.68
2023-04-18T03:32:13.063Z,13.88
2023-04-18T03:35:19.364Z,11.55
2023-04-18T03:38:25.192Z,13.63
2023-04-18T03:41:32.216Z,12.35
2023-04-18T03:44:38.152Z,17.17
2023-04-18T03:47:44.069Z,10.10
2023-04-18T03:50:50.841Z,9.60
2023-04-18T03:53:56.498Z,12.60
2023-04-18T03:57:03.477Z,11.13
2023-04-18T04:00:13.193Z,9.68
2023-04-18T04:03:21.705Z,14.15
2023-04-18T04:06:27.689Z,9.10
2023-04-18T04:09:33.220Z,10.18
2023-04-18T04:12:39.580Z,12.85
2023-04-18T04:15:45.125Z,10.05
2023-04-18T04:18:51.059Z,19.30
2023-04-18T04:22:00.601Z,16.33
2023-04-18T04:25:08.034Z,14.18
2023-04-18T04:28:18.258Z,10.88
2023-04-18T04:31:32.193Z,15.85
2023-04-18T04:34:38.247Z,12.50
2023-04-18T04:37:46.672Z,15.60
2023-04-18T04:41:01.885Z,10.68
2023-04-18T04:44:09.977Z,12.65
2023-04-18T04:47:15.904Z,13.88
2023-04-18T04:50:22.582Z,11.40
2023-04-18T04:53:32.301Z,15.98
2023-04-18T04:59:45.951Z,11.07
2023-04-18T05:03:00.168Z,17.27
2023-04-18T05:06:06.662Z,12.80
2023-04-18T05:09:12.346Z,25.42
2023-04-18T05:12:18.148Z,11.40
2023-04-18T05:15:23.853Z,18.85
2023-04-18T05:18:29.038Z,16.48
2023-04-18T05:21:34.818Z,10.40
2023-04-18T05:24:41.570Z,10.93
2023-04-18T05:27:47.484Z,10.75
2023-04-18T05:30:53.568Z,10.65
2023-04-18T05:33:59.073Z,11.70
2023-04-18T05:37:04.974Z,19.45
2023-04-18T05:40:12.368Z,12.70
2023-04-18T05:43:20.945Z,18.48
2023-04-18T05:46:26.732Z,8.70
2023-04-18T05:49:32.918Z,11.63
2023-04-18T05:52:39.575Z,10.57
2023-04-18T05:55:46.873Z,12.30
2023-04-18T05:58:52.190Z,10.88
2023-04-18T06:01:57.859Z,12.32
2023-04-18T06:05:03.824Z,11.70
2023-04-18T06:08:09.532Z,15.05
2023-04-18T06:11:20.438Z,11.68
2023-04-18T06:14:26.350Z,7.90
2023-04-18T06:17:32.808Z,5.70
2023-04-18T06:20:38.359Z,7.22
2023-04-18T06:23:44.300Z,10.45
2023-04-18T06:26:50.065Z,9.93
2023-04-18T06:29:55.634Z,11.13
2023-04-18T06:33:01.896Z,15.95
2023-04-18T06:36:09.267Z,10.07
2023-04-18T06:39:14.731Z,10.25
2023-04-18T06:42:22.006Z,16.52
2023-04-18T06:45:27.945Z,10.55
2023-04-18T06:48:33.610Z,10.13
2023-04-18T06:51:39.319Z,14.73
2023-04-18T06:54:44.834Z,10.98
2023-04-18T06:57:50.855Z,9.13
2023-04-18T07:00:56.724Z,10.75
2023-04-18T07:04:02.790Z,12.32
2023-04-18T07:07:08.336Z,19.48
2023-04-18T07:10:13.939Z,35.20
2023-04-18T07:13:19.585Z,12.35
2023-04-18T07:16:25.282Z,14.35
2023-04-18T07:19:31.024Z,9.80
2023-04-18T07:22:37.745Z,9.35
2023-04-18T07:25:43.346Z,6.75
2023-04-18T07:28:49.978Z,13.95
2023-04-18T07:31:55.601Z,22.95
2023-04-18T07:35:01.598Z,11.15
2023-04-18T07:38:07.522Z,10.15
2023-04-18T07:41:13.470Z,12.45
2023-04-18T07:44:18.879Z,17.35
2023-04-18T07:47:24.651Z,10.98
2023-04-18T07:50:30.430Z,14.68
2023-04-18T07:53:36.964Z,8.77
2023-04-18T07:56:42.561Z,12.70
2023-04-18T07:59:48.497Z,8.88
2023-04-18T08:02:54.203Z,8.07
2023-04-18T08:05:59.880Z,7.95
2023-04-18T08:09:06.289Z,10.30
2023-04-18T08:12:11.839Z,6.25
2023-04-18T08:15:17.452Z,9.88
2023-04-18T08:18:23.371Z,9.05
2023-04-18T08:21:28.855Z,8.82
2023-04-18T08:24:34.644Z,8.50
2023-04-18T08:27:40.709Z,11.18
2023-04-18T08:30:49.372Z,7.50
2023-04-18T08:33:55.038Z,7.40
2023-04-18T08:37:01.282Z,12.93
2023-04-18T08:40:07.858Z,6.30
2023-04-18T08:43:15.237Z,8.82
2023-04-18T08:46:20.796Z,4.25
2023-04-18T08:49:26.617Z,9.48
2023-04-18T08:52:32.759Z,9.25
2023-04-18T08:55:38.468Z,5.97
2023-04-18T08:58:45.357Z,15.35
2023-04-18T09:02:01.886Z,6.80
2023-04-18T09:05:13.514Z,7.03
2023-04-18T09:11:34.597Z,8.63
2023-04-18T09:14:46.154Z,10.18
2023-04-18T09:17:54.258Z,6.95
2023-04-18T09:21:19.646Z,9.20
2023-04-18T09:24:27.503Z,7.60
2023-04-18T09:27:36.262Z,8.43
2023-04-18T09:30:42.434Z,8.18
2023-04-18T09:33:57.105Z,10.10
2023-04-18T09:37:13.988Z,13.18
2023-04-18T09:40:20.081Z,6.05
2023-04-18T09:43:26.083Z,8.63
2023-04-18T09:46:31.920Z,8.77
2023-04-18T09:49:37.626Z,5.70
2023-04-18T09:52:44.440Z,6.47
2023-04-18T09:55:54.794Z,6.85
2023-04-18T09:59:09.600Z,7.65
2023-04-18T10:02:21.294Z,5.50
2023-04-18T10:05:32.532Z,8.00
2023-04-18T10:11:44.903Z,6.70
2023-04-18T10:14:50.503Z,3.80
2023-04-18T10:18:05.666Z,7.50
2023-04-18T10:21:12.377Z,6.07
2023-04-18T10:24:42.375Z,4.95
2023-04-18T10:27:48.006Z,3.42
2023-04-18T10:31:04.338Z,8.93
2023-04-18T10:34:18.073Z,3.65
2023-04-18T10:37:26.986Z,5.20
2023-04-18T10:40:34.497Z,6.00
2023-04-18T10:44:10.371Z,5.22
2023-04-18T10:47:20.037Z,4.82
2023-04-18T10:50:26.129Z,3.88
2023-04-18T10:53:31.818Z,3.50
2023-04-18T10:56:37.789Z,7.00
2023-04-18T10:59:48.689Z,5.40
2023-04-18T11:02:56.736Z,5.90
2023-04-18T11:06:03.789Z,5.10
2023-04-18T11:09:13.986Z,5.65
2023-04-18T11:12:19.854Z,6.00
2023-04-18T11:15:25.765Z,4.88
2023-04-18T11:18:42.206Z,6.50
2023-04-18T11:21:47.532Z,6.05
2023-04-18T11:24:57.741Z,7.57
2023-04-18T11:28:04.990Z,6.35
2023-04-18T11:31:10.841Z,7.47
2023-04-18T11:34:16.437Z,11.20
2023-04-18T11:37:22.350Z,16.33
2023-04-18T11:40:27.928Z,6.57
2023-04-18T11:43:34.111Z,6.55
2023-04-18T11:46:39.976Z,8.63
2023-04-18T11:49:45.508Z,8.07
2023-04-18T11:52:53.164Z,7.45
2023-04-18T11:55:58.715Z,7.68
2023-04-18T11:59:10.479Z,8.77
2023-04-18T12:02:17.608Z,12.43
2023-04-18T12:05:28.271Z,7.07
2023-04-18T12:08:34.069Z,7.80
2023-04-18T12:11:41.721Z,7.57
2023-04-18T12:14:47.187Z,10.07
2023-04-18T12:17:57.418Z,7.63
2023-04-18T12:21:06.132Z,10.98
2023-04-18T12:24:16.257Z,9.40
2023-04-18T12:27:21.456Z,6.80
2023-04-18T12:30:29.849Z,9.23
2023-04-18T12:33:37.994Z,7.25
2023-04-18T12:36:43.365Z,9.88
2023-04-18T12:39:49.252Z,6.25
2023-04-18T12:42:55.613Z,7.47
2023-04-18T12:46:01.408Z,5.35
2023-04-18T12:49:07.353Z,5.85
2023-04-18T12:52:13.223Z,7.00
2023-04-18T12:55:19.350Z,5.78
2023-04-18T12:58:25.118Z,11.68
2023-04-18T13:01:31.024Z,6.88
2023-04-18T13:04:36.997Z,5.68
2023-04-18T13:07:43.580Z,9.48
2023-04-18T13:10:49.112Z,7.03
2023-04-18T13:13:55.844Z,7.75
2023-04-18T13:17:01.547Z,7.75
2023-04-18T13:20:11.137Z,8.32
2023-04-18T13:23:16.585Z,10.50
2023-04-18T13:26:21.937Z,8.27
2023-04-18T13:29:27.302Z,7.90
2023-04-18T13:32:32.846Z,4.95
2023-04-18T13:35:38.228Z,3.97
2023-04-18T13:38:44.272Z,3.10
2023-04-18T13:41:49.268Z,4.82
2023-04-18T13:44:54.627Z,3.28
2023-04-18T13:48:00.280Z,2.83
2023-04-18T13:51:07.171Z,4.30
2023-04-18T13:54:16.949Z,6.22
2023-04-18T13:57:23.423Z,8.15
2023-04-18T14:00:30.530Z,3.28
2023-04-18T14:03:37.845Z,6.80
2023-04-18T14:06:44.700Z,7.82
2023-04-18T14:09:52.034Z,4.20
2023-04-18T14:12:59.603Z,2.13
2023-04-18T14:16:06.846Z,5.32
2023-04-18T14:19:12.612Z,6.72
2023-04-18T14:22:18.724Z,6.15
2023-04-18T14:25:24.726Z,4.82
2023-04-18T14:28:30.808Z,3.17
2023-04-18T14:31:36.645Z,3.63
2023-04-18T14:34:42.939Z,2.35
2023-04-18T14:37:48.499Z,2.40
2023-04-18T14:40:55.006Z,2.38
2023-04-18T14:44:00.404Z,2.75
2023-04-18T14:47:05.806Z,1.98
2023-04-18T14:50:12.315Z,2.42
2023-04-18T14:53:17.830Z,1.90
2023-04-18T14:56:24.451Z,3.58
2023-04-18T14:59:30.396Z,2.20
2023-04-18T15:02:36.398Z,1.90
2023-04-18T15:05:46.858Z,5.65
2023-04-18T15:08:52.975Z,2.53
2023-04-18T15:12:00.254Z,2.47
2023-04-18T15:15:06.863Z,4.38
2023-04-18T15:18:14.212Z,4.82
2023-04-18T15:21:19.303Z,3.33
2023-04-18T15:24:24.705Z,4.90
2023-04-18T15:27:30.628Z,3.30
2023-04-18T15:30:36.479Z,4.25
2023-04-18T15:33:42.159Z,4.90
2023-04-18T15:36:49.405Z,4.88
2023-04-18T15:39:54.974Z,2.10
2023-04-18T15:43:01.136Z,4.95
2023-04-18T15:46:07.336Z,5.63
2023-04-18T15:49:13.211Z,2.20
2023-04-18T15:52:18.867Z,3.08
2023-04-18T15:55:24.382Z,10.73
2023-04-18T15:58:30.584Z,2.38
2023-04-18T16:01:36.312Z,5.30
2023-04-18T16:04:41.639Z,3.65
2023-04-18T16:07:47.309Z,2.58
2023-04-18T16:10:53.567Z,7.97
2023-04-18T16:13:59.077Z,2.03
2023-04-18T16:17:05.143Z,4.10
2023-04-18T16:20:10.984Z,4.50
2023-04-18T16:23:16.593Z,12.07
2023-04-18T16:26:24.028Z,3.40
2023-04-18T16:29:29.487Z,2.60
2023-04-18T16:32:34.983Z,2.03
2023-04-18T16:35:40.569Z,2.65
2023-04-18T16:38:46.389Z,4.20
2023-04-18T16:41:52.185Z,1.65
2023-04-18T16:44:57.898Z,2.55
2023-04-18T16:48:03.740Z,2.25
2023-04-18T16:51:14.047Z,2.28
2023-04-18T16:54:19.743Z,3.20
2023-04-18T16:57:25.561Z,4.30
2023-04-18T17:00:31.084Z,2.45
2023-04-18T17:03:36.865Z,4.68
2023-04-18T17:06:45.558Z,2.78
2023-04-18T17:09:50.976Z,2.08
2023-04-18T17:12:56.842Z,4.60
2023-04-18T17:16:02.738Z,2.80
2023-04-18T17:19:09.165Z,2.45
2023-04-18T17:22:14.944Z,3.83
2023-04-18T17:25:21.874Z,4.82
2023-04-18T17:28:27.420Z,3.75
2023-04-18T17:31:33.102Z,2.97
2023-04-18T17:34:38.558Z,4.00
2023-04-18T17:37:44.660Z,4.13
2023-04-18T17:40:59.072Z,3.22
2023-04-18T17:44:05.862Z,6.13
2023-04-18T17:47:11.281Z,3.80
2023-04-18T17:50:17.432Z,7.35
2023-04-18T17:53:22.813Z,2.70
2023-04-18T17:56:33.651Z,4.60
2023-04-18T17:59:39.541Z,6.20
2023-04-18T18:02:45.253Z,3.08
2023-04-18T18:05:50.774Z,3.88
2023-04-18T18:08:56.207Z,4.80
2023-04-18T18:12:01.432Z,18.30
2023-04-18T18:15:08.365Z,7.72
2023-04-18T18:18:14.038Z,4.88
2023-04-18T18:21:19.693Z,2.40
2023-04-18T18:24:27.326Z,2.97
2023-04-18T18:27:33.201Z,3.30
2023-04-18T18:30:38.606Z,2.97
2023-04-18T18:33:44.176Z,4.57
2023-04-18T18:36:50.786Z,6.38
2023-04-18T18:40:00.379Z,4.55
2023-04-18T18:43:05.975Z,2.88
2023-04-18T18:46:11.804Z,4.38
2023-04-18T18:49:17.496Z,4.97
2023-04-18T18:52:28.541Z,6.60
2023-04-18T18:55:34.260Z,5.72
2023-04-18T18:58:40.685Z,5.40
2023-04-18T19:01:46.660Z,4.07
2023-04-18T19:04:52.760Z,4.85
2023-04-18T19:07:58.213Z,6.55
2023-04-18T19:11:04.580Z,3.38
2023-04-18T19:14:09.856Z,6.63
2023-04-18T19:17:18.130Z,10.20
2023-04-18T19:20:24.134Z,8.43
2023-04-18T19:23:31.171Z,8.93
2023-04-18T19:26:36.951Z,12.23
2023-04-18T19:29:42.349Z,5.07
2023-04-18T19:32:48.136Z,6.50
2023-04-18T19:35:54.174Z,10.00
2023-04-18T19:38:59.551Z,7.00
2023-04-18T19:42:05.370Z,9.07
2023-04-18T19:45:12.390Z,9.98
2023-04-18T19:48:18.057Z,6.85
2023-04-18T19:51:23.742Z,10.10
2023-04-18T19:54:31.485Z,6.28
2023-04-18T19:57:41.654Z,10.05
2023-04-18T20:00:47.149Z,11.48
2023-04-18T20:03:54.712Z,13.85
2023-04-18T20:07:00.555Z,12.82
2023-04-18T20:10:06.891Z,8.43
2023-04-18T20:13:11.966Z,15.38
2023-04-18T20:16:17.596Z,11.15
2023-04-18T20:19:27.073Z,8.30
2023-04-18T20:22:32.941Z,12.40
2023-04-18T20:25:38.251Z,13.63
2023-04-18T20:28:43.310Z,12.18
2023-04-18T20:31:48.705Z,10.40
2023-04-18T20:34:54.043Z,12.02
2023-04-18T20:38:00.799Z,11.35
2023-04-18T20:41:06.349Z,9.77
2023-04-18T20:44:13.957Z,9.57
2023-04-18T20:47:19.309Z,10.00
2023-04-18T20:50:24.830Z,14.80
2023-04-18T20:53:31.333Z,12.30
2023-04-18T20:56:37.699Z,8.38
2023-04-18T20:59:42.825Z,9.60
2023-04-18T21:02:48.891Z,8.95
2023-04-18T21:05:54.475Z,11.82
2023-04-18T21:08:59.786Z,13.05
2023-04-18T21:12:06.170Z,16.48
2023-04-18T21:15:12.179Z,12.60
2023-04-18T21:18:19.192Z,12.73
2023-04-18T21:21:25.912Z,14.40
2023-04-18T21:24:31.402Z,11.43
2023-04-18T21:27:37.138Z,11.57
2023-04-18T21:30:42.721Z,13.20
2023-04-18T21:33:48.629Z,10.23
2023-04-18T21:36:54.176Z,11.10
2023-04-18T21:40:01.401Z,18.60
2023-04-18T21:43:06.507Z,18.20
2023-04-18T21:46:11.994Z,11.90
2023-04-18T21:49:16.976Z,12.63
2023-04-18T21:52:22.534Z,11.52
2023-04-18T21:55:28.096Z,13.63
2023-04-18T21:58:33.700Z,11.27
2023-04-18T22:01:39.407Z,12.63
2023-04-18T22:04:44.704Z,14.52
2023-04-18T22:07:57.628Z,14.88
2023-04-18T22:11:05.013Z,13.73
2023-04-18T22:14:10.989Z,14.57
2023-04-18T22:17:16.808Z,12.25
2023-04-18T22:20:22.247Z,11.85
2023-04-18T22:23:27.907Z,15.27
2023-04-18T22:26:33.401Z,10.55
2023-04-18T22:29:38.466Z,17.52
2023-04-18T22:32:43.837Z,11.25
2023-04-18T22:35:49.176Z,13.90
2023-04-18T22:38:54.984Z,14.07
2023-04-18T22:42:00.493Z,12.18
2023-04-18T22:45:07.220Z,13.48
2023-04-18T22:48:13.484Z,9.90
2023-04-18T22:51:19.068Z,9.48
2023-04-18T22:54:24.508Z,8.55
2023-04-18T22:57:30.080Z,9.52
2023-04-18T23:00:35.843Z,9.98
2023-04-18T23:03:41.696Z,10.05
2023-04-18T23:06:46.918Z,14.05
2023-04-18T23:09:52.238Z,11.27
2023-04-18T23:12:57.283Z,15.02
2023-04-18T23:16:02.504Z,19.02
2023-04-18T23:19:07.708Z,12.48
2023-04-18T23:22:13.252Z,10.80
2023-04-18T23:25:19.990Z,12.38
2023-04-18T23:28:25.158Z,11.35
2023-04-18T23:31:33.000Z,9.38
2023-04-18T23:34:38.464Z,9.82
2023-04-18T23:37:43.917Z,17.35
2023-04-18T23:40:49.400Z,15.75
2023-04-18T23:43:54.484Z,11.52
2023-04-18T23:46:59.606Z,15.82
2023-04-18T23:50:05.224Z,13.63
2023-04-18T23:53:10.549Z,11.98
2023-04-18T23:56:16.083Z,9.85
2023-04-18T23:59:21.400Z,8.88
